sensor_id;sensor_type;location;lat;lon;timestamp;P1;durP1;ratioP1;P2;durP2;ratioP2
1785;SDS011;890;48.158;11.540;2023-06-01T00:00:16;6.37;;;5.80;;
1785;SDS011;890;48.158;11.540;2023-06-01T00:02:42;9.87;;;7.80;;
1785;SDS011;890;48.158;11.540;2023-06-01T00:05:08;9.00;;;8.10;;
1785;SDS011;890;48.158;11.540;2023-06-01T00:07:34;7.80;;;6.90;;
1785;SDS011;890;48.158;11.540;2023-06-01T00:10:00;12.10;;;7.47;;
1785;SDS011;890;48.158;11.540;2023-06-01T00:12:25;9.17;;;8.10;;
1785;SDS011;890;48.158;11.540;2023-06-01T00:14:51;7.43;;;6.50;;
1785;SDS011;890;48.158;11.540;2023-06-01T00:17:17;8.43;;;6.40;;
1785;SDS011;890;48.158;11.540;2023-06-01T00:19:44;6.93;;;6.23;;
1785;SDS011;890;48.158;11.540;2023-06-01T00:22:10;8.07;;;7.27;;
1785;SDS011;890;48.158;11.540;2023-06-01T00:24:36;9.07;;;8.07;;
1785;SDS011;890;48.158;11.540;2023-06-01T00:27:02;8.77;;;7.80;;
1785;SDS011;890;48.158;11.540;2023-06-01T00:29:48;13.60;;;6.07;;
1785;SDS011;890;48.158;11.540;2023-06-01T00:32:13;8.33;;;7.20;;
1785;SDS011;890;48.158;11.540;2023-06-01T00:34:39;9.33;;;5.90;;
1785;SDS011;890;48.158;11.540;2023-06-01T00:37:05;8.93;;;6.10;;
1785;SDS011;890;48.158;11.540;2023-06-01T00:39:30;9.20;;;6.50;;
1785;SDS011;890;48.158;11.540;2023-06-01T00:41:56;7.33;;;5.87;;
1785;SDS011;890;48.158;11.540;2023-06-01T00:44:21;7.83;;;7.13;;
1785;SDS011;890;48.158;11.540;2023-06-01T00:46:47;8.30;;;7.50;;
1785;SDS011;890;48.158;11.540;2023-06-01T00:49:14;8.50;;;7.70;;
1785;SDS011;890;48.158;11.540;2023-06-01T00:51:40;11.63;;;7.40;;
1785;SDS011;890;48.158;11.540;2023-06-01T00:54:06;8.27;;;7.40;;
1785;SDS011;890;48.158;11.540;2023-06-01T00:56:32;9.17;;;7.60;;
1785;SDS011;890;48.158;11.540;2023-06-01T00:59:00;8.50;;;7.60;;
1785;SDS011;890;48.158;11.540;2023-06-01T01:01:26;9.53;;;7.77;;
1785;SDS011;890;48.158;11.540;2023-06-01T01:03:52;9.27;;;7.63;;
1785;SDS011;890;48.158;11.540;2023-06-01T01:09:28;9.33;;;8.43;;
1785;SDS011;890;48.158;11.540;2023-06-01T01:11:57;8.63;;;7.60;;
1785;SDS011;890;48.158;11.540;2023-06-01T01:14:30;8.57;;;7.77;;
1785;SDS011;890;48.158;11.540;2023-06-01T01:17:29;10.37;;;6.43;;
1785;SDS011;890;48.158;11.540;2023-06-01T01:20:08;43.20;;;40.63;;
1785;SDS011;890;48.158;11.540;2023-06-01T01:30:43;8.40;;;6.10;;
1785;SDS011;890;48.158;11.540;2023-06-01T01:33:11;7.30;;;6.03;;
1785;SDS011;890;48.158;11.540;2023-06-01T01:35:37;9.17;;;6.03;;
1785;SDS011;890;48.158;11.540;2023-06-01T01:38:03;12.17;;;7.07;;
1785;SDS011;890;48.158;11.540;2023-06-01T01:40:29;9.10;;;5.60;;
1785;SDS011;890;48.158;11.540;2023-06-01T01:42:55;9.10;;;6.60;;
1785;SDS011;890;48.158;11.540;2023-06-01T01:45:22;7.83;;;5.77;;
1785;SDS011;890;48.158;11.540;2023-06-01T01:50:53;7.97;;;6.60;;
1785;SDS011;890;48.158;11.540;2023-06-01T01:53:23;9.60;;;7.27;;
1785;SDS011;890;48.158;11.540;2023-06-01T01:55:51;9.17;;;6.50;;
1785;SDS011;890;48.158;11.540;2023-06-01T01:58:18;7.80;;;6.60;;
1785;SDS011;890;48.158;11.540;2023-06-01T02:00:44;10.13;;;7.47;;
1785;SDS011;890;48.158;11.540;2023-06-01T02:03:16;8.50;;;6.60;;
1785;SDS011;890;48.158;11.540;2023-06-01T02:05:43;8.90;;;7.23;;
1785;SDS011;890;48.158;11.540;2023-06-01T02:08:09;8.23;;;7.23;;
1785;SDS011;890;48.158;11.540;2023-06-01T02:10:36;7.73;;;6.73;;
1785;SDS011;890;48.158;11.540;2023-06-01T02:13:02;8.33;;;6.53;;
1785;SDS011;890;48.158;11.540;2023-06-01T02:15:28;8.40;;;6.03;;
1785;SDS011;890;48.158;11.540;2023-06-01T02:17:53;7.00;;;6.27;;
1785;SDS011;890;48.158;11.540;2023-06-01T02:20:19;8.17;;;6.87;;
1785;SDS011;890;48.158;11.540;2023-06-01T02:22:45;8.27;;;6.87;;
1785;SDS011;890;48.158;11.540;2023-06-01T02:25:10;8.70;;;6.60;;
1785;SDS011;890;48.158;11.540;2023-06-01T02:27:36;11.07;;;7.57;;
1785;SDS011;890;48.158;11.540;2023-06-01T02:30:02;10.70;;;7.77;;
1785;SDS011;890;48.158;11.540;2023-06-01T02:32:28;7.70;;;6.90;;
1785;SDS011;890;48.158;11.540;2023-06-01T02:34:55;7.73;;;6.93;;
1785;SDS011;890;48.158;11.540;2023-06-01T02:37:21;7.50;;;6.73;;
1785;SDS011;890;48.158;11.540;2023-06-01T02:39:46;12.73;;;6.63;;
1785;SDS011;890;48.158;11.540;2023-06-01T02:42:12;8.43;;;6.87;;
1785;SDS011;890;48.158;11.540;2023-06-01T02:44:38;8.57;;;6.73;;
1785;SDS011;890;48.158;11.540;2023-06-01T02:47:04;9.10;;;7.60;;
1785;SDS011;890;48.158;11.540;2023-06-01T02:49:30;8.17;;;7.17;;
1785;SDS011;890;48.158;11.540;2023-06-01T02:51:56;9.50;;;7.70;;
1785;SDS011;890;48.158;11.540;2023-06-01T02:54:21;8.33;;;7.00;;
1785;SDS011;890;48.158;11.540;2023-06-01T02:56:47;10.40;;;8.10;;
1785;SDS011;890;48.158;11.540;2023-06-01T02:59:12;9.40;;;7.63;;
1785;SDS011;890;48.158;11.540;2023-06-01T03:01:38;8.70;;;7.80;;
1785;SDS011;890;48.158;11.540;2023-06-01T03:04:04;11.90;;;7.63;;
1785;SDS011;890;48.158;11.540;2023-06-01T03:06:30;9.67;;;7.90;;
1785;SDS011;890;48.158;11.540;2023-06-01T03:09:03;8.80;;;7.90;;
1785;SDS011;890;48.158;11.540;2023-06-01T03:11:29;9.80;;;7.80;;
1785;SDS011;890;48.158;11.540;2023-06-01T03:13:54;8.77;;;7.20;;
1785;SDS011;890;48.158;11.540;2023-06-01T03:16:22;8.73;;;7.77;;
1785;SDS011;890;48.158;11.540;2023-06-01T03:18:48;10.03;;;8.30;;
1785;SDS011;890;48.158;11.540;2023-06-01T03:21:14;10.07;;;8.10;;
1785;SDS011;890;48.158;11.540;2023-06-01T03:23:41;12.10;;;8.40;;
1785;SDS011;890;48.158;11.540;2023-06-01T03:26:09;13.57;;;8.30;;
1785;SDS011;890;48.158;11.540;2023-06-01T03:28:37;9.30;;;8.37;;
1785;SDS011;890;48.158;11.540;2023-06-01T03:31:03;8.20;;;7.50;;
1785;SDS011;890;48.158;11.540;2023-06-01T03:33:29;8.60;;;7.50;;
1785;SDS011;890;48.158;11.540;2023-06-01T03:35:54;8.70;;;7.80;;
1785;SDS011;890;48.158;11.540;2023-06-01T03:38:21;9.90;;;8.03;;
1785;SDS011;890;48.158;11.540;2023-06-01T03:40:47;9.00;;;7.60;;
1785;SDS011;890;48.158;11.540;2023-06-01T03:43:12;10.27;;;7.70;;
1785;SDS011;890;48.158;11.540;2023-06-01T03:45:38;9.00;;;8.10;;
1785;SDS011;890;48.158;11.540;2023-06-01T03:48:04;8.67;;;7.63;;
1785;SDS011;890;48.158;11.540;2023-06-01T03:50:29;9.20;;;7.93;;
1785;SDS011;890;48.158;11.540;2023-06-01T03:52:55;9.50;;;7.90;;
1785;SDS011;890;48.158;11.540;2023-06-01T03:55:21;8.10;;;7.30;;
1785;SDS011;890;48.158;11.540;2023-06-01T03:57:47;10.90;;;7.73;;
1785;SDS011;890;48.158;11.540;2023-06-01T04:00:13;8.43;;;6.50;;
1785;SDS011;890;48.158;11.540;2023-06-01T04:02:48;8.73;;;7.93;;
1785;SDS011;890;48.158;11.540;2023-06-01T04:05:19;8.40;;;7.60;;
1785;SDS011;890;48.158;11.540;2023-06-01T04:07:46;7.90;;;7.07;;
1785;SDS011;890;48.158;11.540;2023-06-01T04:10:13;12.00;;;7.47;;
1785;SDS011;890;48.158;11.540;2023-06-01T04:12:45;7.70;;;6.90;;
1785;SDS011;890;48.158;11.540;2023-06-01T04:15:13;8.30;;;7.10;;
1785;SDS011;890;48.158;11.540;2023-06-01T04:17:40;8.43;;;7.00;;
1785;SDS011;890;48.158;11.540;2023-06-01T04:20:13;10.00;;;7.20;;
1785;SDS011;890;48.158;11.540;2023-06-01T04:22:40;8.07;;;7.07;;
1785;SDS011;890;48.158;11.540;2023-06-01T04:25:08;7.53;;;6.73;;
1785;SDS011;890;48.158;11.540;2023-06-01T04:27:36;9.63;;;7.60;;
1785;SDS011;890;48.158;11.540;2023-06-01T04:30:05;8.40;;;7.47;;
1785;SDS011;890;48.158;11.540;2023-06-01T04:32:34;8.20;;;7.40;;
1785;SDS011;890;48.158;11.540;2023-06-01T04:35:03;8.40;;;7.60;;
1785;SDS011;890;48.158;11.540;2023-06-01T04:37:39;9.63;;;7.03;;
1785;SDS011;890;48.158;11.540;2023-06-01T04:40:06;8.80;;;7.40;;
1785;SDS011;890;48.158;11.540;2023-06-01T04:42:34;9.93;;;7.50;;
1785;SDS011;890;48.158;11.540;2023-06-01T04:45:06;8.33;;;7.07;;
1785;SDS011;890;48.158;11.540;2023-06-01T04:47:33;8.37;;;7.57;;
1785;SDS011;890;48.158;11.540;2023-06-01T04:50:03;8.10;;;7.20;;
1785;SDS011;890;48.158;11.540;2023-06-01T04:52:35;9.50;;;8.10;;
1785;SDS011;890;48.158;11.540;2023-06-01T04:55:05;10.40;;;7.73;;
1785;SDS011;890;48.158;11.540;2023-06-01T04:57:32;8.03;;;7.00;;
1785;SDS011;890;48.158;11.540;2023-06-01T04:59:58;7.37;;;6.67;;
1785;SDS011;890;48.158;11.540;2023-06-01T05:02:25;7.63;;;6.80;;
1785;SDS011;890;48.158;11.540;2023-06-01T05:04:51;10.03;;;7.03;;
1785;SDS011;890;48.158;11.540;2023-06-01T05:07:17;9.40;;;7.60;;
1785;SDS011;890;48.158;11.540;2023-06-01T05:09:43;8.20;;;7.00;;
1785;SDS011;890;48.158;11.540;2023-06-01T05:12:08;8.53;;;7.10;;
1785;SDS011;890;48.158;11.540;2023-06-01T05:14:34;7.53;;;6.73;;
1785;SDS011;890;48.158;11.540;2023-06-01T05:16:59;8.40;;;7.40;;
1785;SDS011;890;48.158;11.540;2023-06-01T05:19:25;7.90;;;6.80;;
1785;SDS011;890;48.158;11.540;2023-06-01T05:21:51;8.57;;;7.67;;
1785;SDS011;890;48.158;11.540;2023-06-01T05:24:16;7.43;;;6.60;;
1785;SDS011;890;48.158;11.540;2023-06-01T05:26:43;8.37;;;7.13;;
1785;SDS011;890;48.158;11.540;2023-06-01T05:29:08;13.03;;;6.97;;
1785;SDS011;890;48.158;11.540;2023-06-01T05:31:34;12.87;;;7.27;;
1785;SDS011;890;48.158;11.540;2023-06-01T05:34:00;8.47;;;6.80;;
1785;SDS011;890;48.158;11.540;2023-06-01T05:36:26;8.23;;;6.87;;
1785;SDS011;890;48.158;11.540;2023-06-01T05:38:52;11.53;;;7.90;;
1785;SDS011;890;48.158;11.540;2023-06-01T05:41:17;7.63;;;6.83;;
1785;SDS011;890;48.158;11.540;2023-06-01T05:43:43;8.70;;;6.80;;
1785;SDS011;890;48.158;11.540;2023-06-01T05:46:08;7.60;;;6.77;;
1785;SDS011;890;48.158;11.540;2023-06-01T05:48:34;7.53;;;6.73;;
1785;SDS011;890;48.158;11.540;2023-06-01T05:51:00;8.43;;;7.60;;
1785;SDS011;890;48.158;11.540;2023-06-01T05:53:25;8.50;;;6.63;;
1785;SDS011;890;48.158;11.540;2023-06-01T05:55:52;7.03;;;6.43;;
1785;SDS011;890;48.158;11.540;2023-06-01T05:58:18;9.83;;;7.10;;
1785;SDS011;890;48.158;11.540;2023-06-01T06:00:43;9.10;;;7.17;;
1785;SDS011;890;48.158;11.540;2023-06-01T06:03:09;9.90;;;7.00;;
1785;SDS011;890;48.158;11.540;2023-06-01T06:05:35;7.80;;;6.87;;
1785;SDS011;890;48.158;11.540;2023-06-01T06:08:00;8.20;;;7.40;;
1785;SDS011;890;48.158;11.540;2023-06-01T06:10:26;11.57;;;7.40;;
1785;SDS011;890;48.158;11.540;2023-06-01T06:12:51;12.40;;;7.30;;
1785;SDS011;890;48.158;11.540;2023-06-01T06:15:17;9.20;;;7.40;;
1785;SDS011;890;48.158;11.540;2023-06-01T06:17:43;9.70;;;7.40;;
1785;SDS011;890;48.158;11.540;2023-06-01T06:20:08;8.53;;;7.50;;
1785;SDS011;890;48.158;11.540;2023-06-01T06:22:35;10.33;;;7.63;;
1785;SDS011;890;48.158;11.540;2023-06-01T06:25:01;7.83;;;6.50;;
1785;SDS011;890;48.158;11.540;2023-06-01T06:27:27;9.50;;;7.27;;
1785;SDS011;890;48.158;11.540;2023-06-01T06:29:52;9.80;;;8.20;;
1785;SDS011;890;48.158;11.540;2023-06-01T06:32:18;7.87;;;6.60;;
1785;SDS011;890;48.158;11.540;2023-06-01T06:34:47;8.80;;;7.53;;
1785;SDS011;890;48.158;11.540;2023-06-01T06:37:13;10.97;;;7.00;;
1785;SDS011;890;48.158;11.540;2023-06-01T06:39:38;14.30;;;8.10;;
1785;SDS011;890;48.158;11.540;2023-06-01T06:42:04;10.97;;;7.77;;
1785;SDS011;890;48.158;11.540;2023-06-01T06:44:30;12.53;;;6.83;;
1785;SDS011;890;48.158;11.540;2023-06-01T06:46:59;11.00;;;7.37;;
1785;SDS011;890;48.158;11.540;2023-06-01T06:49:27;7.63;;;6.83;;
1785;SDS011;890;48.158;11.540;2023-06-01T06:51:53;9.37;;;7.03;;
1785;SDS011;890;48.158;11.540;2023-06-01T06:54:19;8.97;;;7.77;;
1785;SDS011;890;48.158;11.540;2023-06-01T06:56:44;8.13;;;7.30;;
1785;SDS011;890;48.158;11.540;2023-06-01T06:59:10;8.23;;;6.53;;
1785;SDS011;890;48.158;11.540;2023-06-01T07:01:36;9.70;;;7.50;;
1785;SDS011;890;48.158;11.540;2023-06-01T07:04:03;7.70;;;6.70;;
1785;SDS011;890;48.158;11.540;2023-06-01T07:06:29;12.30;;;7.60;;
1785;SDS011;890;48.158;11.540;2023-06-01T07:08:54;8.40;;;7.10;;
1785;SDS011;890;48.158;11.540;2023-06-01T07:11:21;10.00;;;7.10;;
1785;SDS011;890;48.158;11.540;2023-06-01T07:13:48;7.83;;;6.87;;
1785;SDS011;890;48.158;11.540;2023-06-01T07:16:14;10.27;;;6.67;;
1785;SDS011;890;48.158;11.540;2023-06-01T07:18:39;8.33;;;7.07;;
1785;SDS011;890;48.158;11.540;2023-06-01T07:21:05;10.63;;;7.03;;
1785;SDS011;890;48.158;11.540;2023-06-01T07:23:31;9.10;;;6.80;;
1785;SDS011;890;48.158;11.540;2023-06-01T07:25:56;8.73;;;6.90;;
1785;SDS011;890;48.158;11.540;2023-06-01T07:28:22;9.43;;;7.70;;
1785;SDS011;890;48.158;11.540;2023-06-01T07:30:50;8.33;;;6.73;;
1785;SDS011;890;48.158;11.540;2023-06-01T07:33:16;7.43;;;6.73;;
1785;SDS011;890;48.158;11.540;2023-06-01T07:35:42;8.20;;;6.60;;
1785;SDS011;890;48.158;11.540;2023-06-01T07:38:08;8.80;;;7.17;;
1785;SDS011;890;48.158;11.540;2023-06-01T07:40:34;8.23;;;6.70;;
1785;SDS011;890;48.158;11.540;2023-06-01T07:43:00;12.03;;;6.93;;
1785;SDS011;890;48.158;11.540;2023-06-01T07:45:25;7.53;;;6.73;;
1785;SDS011;890;48.158;11.540;2023-06-01T07:47:51;8.47;;;6.30;;
1785;SDS011;890;48.158;11.540;2023-06-01T07:50:18;14.27;;;6.23;;
1785;SDS011;890;48.158;11.540;2023-06-01T07:52:44;181.77;;;173.47;;
1785;SDS011;890;48.158;11.540;2023-06-01T07:55:10;250.80;;;238.67;;
1785;SDS011;890;48.158;11.540;2023-06-01T07:57:36;877.53;;;832.30;;
1785;SDS011;890;48.158;11.540;2023-06-01T08:00:05;650.10;;;616.70;;
1785;SDS011;890;48.158;11.540;2023-06-01T08:02:34;625.60;;;593.20;;
1785;SDS011;890;48.158;11.540;2023-06-01T08:05:00;1120.57;;;999.90;;
1785;SDS011;890;48.158;11.540;2023-06-01T08:07:27;1152.23;;;999.90;;
1785;SDS011;890;48.158;11.540;2023-06-01T08:09:54;875.30;;;824.03;;
1785;SDS011;890;48.158;11.540;2023-06-01T08:12:20;8.30;;;5.73;;
1785;SDS011;890;48.158;11.540;2023-06-01T08:14:46;7.93;;;6.53;;
1785;SDS011;890;48.158;11.540;2023-06-01T08:17:12;7.10;;;5.90;;
1785;SDS011;890;48.158;11.540;2023-06-01T08:19:39;13.27;;;11.97;;
1785;SDS011;890;48.158;11.540;2023-06-01T08:22:06;526.47;;;499.63;;
1785;SDS011;890;48.158;11.540;2023-06-01T08:24:32;800.40;;;757.37;;
1785;SDS011;890;48.158;11.540;2023-06-01T08:26:58;1098.17;;;999.90;;
1785;SDS011;890;48.158;11.540;2023-06-01T08:29:23;700.83;;;664.97;;
1785;SDS011;890;48.158;11.540;2023-06-01T08:31:49;20.87;;;19.60;;
1785;SDS011;890;48.158;11.540;2023-06-01T08:34:15;8.33;;;6.37;;
1785;SDS011;890;48.158;11.540;2023-06-01T08:36:40;9.63;;;6.80;;
1785;SDS011;890;48.158;11.540;2023-06-01T08:39:22;6.90;;;6.30;;
1785;SDS011;890;48.158;11.540;2023-06-01T08:42:06;7.57;;;6.77;;
1785;SDS011;890;48.158;11.540;2023-06-01T08:44:34;13.03;;;7.53;;
1785;SDS011;890;48.158;11.540;2023-06-01T08:47:02;7.77;;;6.83;;
1785;SDS011;890;48.158;11.540;2023-06-01T08:49:29;7.23;;;6.53;;
1785;SDS011;890;48.158;11.540;2023-06-01T08:51:56;9.67;;;7.40;;
1785;SDS011;890;48.158;11.540;2023-06-01T08:54:45;13.23;;;7.73;;
1785;SDS011;890;48.158;11.540;2023-06-01T08:57:11;9.43;;;6.97;;
1785;SDS011;890;48.158;11.540;2023-06-01T08:59:37;8.03;;;7.00;;
1785;SDS011;890;48.158;11.540;2023-06-01T09:02:04;8.73;;;7.93;;
1785;SDS011;890;48.158;11.540;2023-06-01T09:04:32;14.47;;;7.47;;
1785;SDS011;890;48.158;11.540;2023-06-01T09:07:06;7.97;;;7.10;;
1785;SDS011;890;48.158;11.540;2023-06-01T09:09:32;6.87;;;5.93;;
1785;SDS011;890;48.158;11.540;2023-06-01T09:14:50;8.50;;;7.07;;
1785;SDS011;890;48.158;11.540;2023-06-01T09:17:31;7.80;;;6.93;;
1785;SDS011;890;48.158;11.540;2023-06-01T09:19:58;8.63;;;7.13;;
1785;SDS011;890;48.158;11.540;2023-06-01T09:22:23;8.17;;;7.27;;
1785;SDS011;890;48.158;11.540;2023-06-01T09:24:55;11.37;;;7.20;;
1785;SDS011;890;48.158;11.540;2023-06-01T09:27:23;7.60;;;6.83;;
1785;SDS011;890;48.158;11.540;2023-06-01T09:29:52;8.20;;;6.60;;
1785;SDS011;890;48.158;11.540;2023-06-01T09:32:22;7.30;;;6.60;;
1785;SDS011;890;48.158;11.540;2023-06-01T09:34:49;7.80;;;7.00;;
1785;SDS011;890;48.158;11.540;2023-06-01T09:37:15;7.87;;;6.23;;
1785;SDS011;890;48.158;11.540;2023-06-01T09:39:42;7.67;;;6.33;;
1785;SDS011;890;48.158;11.540;2023-06-01T09:42:08;7.70;;;6.63;;
1785;SDS011;890;48.158;11.540;2023-06-01T09:47:04;10.77;;;6.30;;
1785;SDS011;890;48.158;11.540;2023-06-01T09:49:35;7.87;;;6.90;;
1785;SDS011;890;48.158;11.540;2023-06-01T09:54:29;7.60;;;6.90;;
1785;SDS011;890;48.158;11.540;2023-06-01T09:56:56;6.70;;;5.57;;
1785;SDS011;890;48.158;11.540;2023-06-01T09:59:23;6.50;;;5.17;;
1785;SDS011;890;48.158;11.540;2023-06-01T10:01:53;6.70;;;5.80;;
1785;SDS011;890;48.158;11.540;2023-06-01T10:04:23;8.60;;;6.70;;
1785;SDS011;890;48.158;11.540;2023-06-01T10:06:52;8.00;;;5.93;;
1785;SDS011;890;48.158;11.540;2023-06-01T10:09:22;8.00;;;5.40;;
1785;SDS011;890;48.158;11.540;2023-06-01T10:11:51;6.90;;;5.93;;
1785;SDS011;890;48.158;11.540;2023-06-01T10:14:19;10.80;;;7.43;;
1785;SDS011;890;48.158;11.540;2023-06-01T10:16:47;8.97;;;6.40;;
1785;SDS011;890;48.158;11.540;2023-06-01T10:19:18;7.70;;;6.37;;
1785;SDS011;890;48.158;11.540;2023-06-01T10:21:45;8.57;;;6.10;;
1785;SDS011;890;48.158;11.540;2023-06-01T10:24:12;14.17;;;5.80;;
1785;SDS011;890;48.158;11.540;2023-06-01T10:26:43;6.87;;;5.83;;
1785;SDS011;890;48.158;11.540;2023-06-01T10:29:10;6.10;;;5.57;;
1785;SDS011;890;48.158;11.540;2023-06-01T10:31:37;7.77;;;5.87;;
1785;SDS011;890;48.158;11.540;2023-06-01T10:34:03;8.90;;;6.37;;
1785;SDS011;890;48.158;11.540;2023-06-01T10:37:09;8.30;;;5.57;;
1785;SDS011;890;48.158;11.540;2023-06-01T10:39:31;5.50;;;4.87;;
1785;SDS011;890;48.158;11.540;2023-06-01T10:41:58;4.00;;;3.60;;
1785;SDS011;890;48.158;11.540;2023-06-01T10:44:47;4.80;;;4.30;;
1785;SDS011;890;48.158;11.540;2023-06-01T10:52:30;4.63;;;4.03;;
1785;SDS011;890;48.158;11.540;2023-06-01T10:57:38;4.73;;;3.93;;
1785;SDS011;890;48.158;11.540;2023-06-01T11:02:52;4.67;;;4.27;;
1785;SDS011;890;48.158;11.540;2023-06-01T11:08:49;7.20;;;4.20;;
1785;SDS011;890;48.158;11.540;2023-06-01T11:10:58;4.90;;;4.40;;
1785;SDS011;890;48.158;11.540;2023-06-01T11:13:29;7.37;;;4.93;;
1785;SDS011;890;48.158;11.540;2023-06-01T11:18:53;5.27;;;4.53;;
1785;SDS011;890;48.158;11.540;2023-06-01T11:21:45;4.87;;;3.97;;
1785;SDS011;890;48.158;11.540;2023-06-01T11:24:10;5.33;;;4.10;;
1785;SDS011;890;48.158;11.540;2023-06-01T11:26:43;382.47;;;368.57;;
1785;SDS011;890;48.158;11.540;2023-06-01T11:31:39;481.13;;;463.63;;
1785;SDS011;890;48.158;11.540;2023-06-01T11:34:10;417.03;;;401.97;;
1785;SDS011;890;48.158;11.540;2023-06-01T11:36:38;112.27;;;107.67;;
1785;SDS011;890;48.158;11.540;2023-06-01T11:39:15;9.23;;;6.53;;
1785;SDS011;890;48.158;11.540;2023-06-01T11:44:30;11.93;;;10.90;;
1785;SDS011;890;48.158;11.540;2023-06-01T11:46:56;17.80;;;16.23;;
1785;SDS011;890;48.158;11.540;2023-06-01T11:49:23;12.47;;;8.10;;
1785;SDS011;890;48.158;11.540;2023-06-01T11:51:50;34.83;;;33.00;;
1785;SDS011;890;48.158;11.540;2023-06-01T11:54:16;52.67;;;50.00;;
1785;SDS011;890;48.158;11.540;2023-06-01T11:56:47;5.37;;;4.50;;
1785;SDS011;890;48.158;11.540;2023-06-01T11:59:13;7.67;;;4.80;;
1785;SDS011;890;48.158;11.540;2023-06-01T12:01:42;6.47;;;4.43;;
1785;SDS011;890;48.158;11.540;2023-06-01T12:04:16;4.73;;;4.23;;
1785;SDS011;890;48.158;11.540;2023-06-01T12:06:43;4.40;;;3.97;;
1785;SDS011;890;48.158;11.540;2023-06-01T12:09:10;5.83;;;4.87;;
1785;SDS011;890;48.158;11.540;2023-06-01T12:11:40;5.83;;;5.27;;
1785;SDS011;890;48.158;11.540;2023-06-01T12:14:09;9.33;;;6.93;;
1785;SDS011;890;48.158;11.540;2023-06-01T12:16:51;7.43;;;5.60;;
1785;SDS011;890;48.158;11.540;2023-06-01T12:19:22;10.73;;;7.30;;
1785;SDS011;890;48.158;11.540;2023-06-01T12:21:48;5.70;;;5.20;;
1785;SDS011;890;48.158;11.540;2023-06-01T12:24:25;6.20;;;5.33;;
1785;SDS011;890;48.158;11.540;2023-06-01T12:27:00;6.17;;;5.53;;
1785;SDS011;890;48.158;11.540;2023-06-01T12:29:34;7.87;;;5.20;;
1785;SDS011;890;48.158;11.540;2023-06-01T12:32:02;7.50;;;5.77;;
1785;SDS011;890;48.158;11.540;2023-06-01T12:34:28;5.30;;;4.80;;
1785;SDS011;890;48.158;11.540;2023-06-01T12:36:54;5.50;;;5.00;;
1785;SDS011;890;48.158;11.540;2023-06-01T12:39:31;7.60;;;5.30;;
1785;SDS011;890;48.158;11.540;2023-06-01T12:42:03;6.90;;;6.00;;
1785;SDS011;890;48.158;11.540;2023-06-01T12:44:30;6.00;;;5.40;;
1785;SDS011;890;48.158;11.540;2023-06-01T12:46:58;8.87;;;5.70;;
1785;SDS011;890;48.158;11.540;2023-06-01T12:49:25;7.10;;;5.63;;
1785;SDS011;890;48.158;11.540;2023-06-01T12:51:51;5.80;;;5.20;;
1785;SDS011;890;48.158;11.540;2023-06-01T12:54:17;8.30;;;5.47;;
1785;SDS011;890;48.158;11.540;2023-06-01T12:56:43;6.50;;;5.90;;
1785;SDS011;890;48.158;11.540;2023-06-01T12:59:09;5.33;;;4.83;;
1785;SDS011;890;48.158;11.540;2023-06-01T13:01:35;6.97;;;5.57;;
1785;SDS011;890;48.158;11.540;2023-06-01T13:04:00;8.93;;;5.87;;
1785;SDS011;890;48.158;11.540;2023-06-01T13:06:28;5.90;;;5.27;;
1785;SDS011;890;48.158;11.540;2023-06-01T13:08:54;6.10;;;5.50;;
1785;SDS011;890;48.158;11.540;2023-06-01T13:11:20;7.33;;;5.80;;
1785;SDS011;890;48.158;11.540;2023-06-01T13:13:48;8.37;;;5.43;;
1785;SDS011;890;48.158;11.540;2023-06-01T13:16:14;5.77;;;5.10;;
1785;SDS011;890;48.158;11.540;2023-06-01T13:18:40;6.63;;;5.90;;
1785;SDS011;890;48.158;11.540;2023-06-01T13:21:06;5.93;;;5.30;;
1785;SDS011;890;48.158;11.540;2023-06-01T13:23:32;6.10;;;5.40;;
1785;SDS011;890;48.158;11.540;2023-06-01T13:25:58;7.50;;;5.77;;
1785;SDS011;890;48.158;11.540;2023-06-01T13:28:23;9.60;;;5.53;;
1785;SDS011;890;48.158;11.540;2023-06-01T13:30:49;8.40;;;6.70;;
1785;SDS011;890;48.158;11.540;2023-06-01T13:33:15;6.37;;;5.47;;
1785;SDS011;890;48.158;11.540;2023-06-01T13:35:40;6.80;;;5.70;;
1785;SDS011;890;48.158;11.540;2023-06-01T13:38:06;6.90;;;6.27;;
1785;SDS011;890;48.158;11.540;2023-06-01T13:40:32;6.43;;;5.73;;
1785;SDS011;890;48.158;11.540;2023-06-01T13:42:58;6.57;;;5.70;;
1785;SDS011;890;48.158;11.540;2023-06-01T13:45:24;8.33;;;6.03;;
1785;SDS011;890;48.158;11.540;2023-06-01T13:47:50;6.70;;;6.00;;
1785;SDS011;890;48.158;11.540;2023-06-01T13:50:16;6.37;;;5.77;;
1785;SDS011;890;48.158;11.540;2023-06-01T13:52:42;5.97;;;5.37;;
1785;SDS011;890;48.158;11.540;2023-06-01T13:55:09;7.00;;;5.83;;
1785;SDS011;890;48.158;11.540;2023-06-01T13:57:35;7.07;;;5.67;;
1785;SDS011;890;48.158;11.540;2023-06-01T14:00:04;8.17;;;6.93;;
1785;SDS011;890;48.158;11.540;2023-06-01T14:02:31;8.60;;;6.73;;
1785;SDS011;890;48.158;11.540;2023-06-01T14:04:56;6.10;;;5.27;;
1785;SDS011;890;48.158;11.540;2023-06-01T14:07:22;7.37;;;5.47;;
1785;SDS011;890;48.158;11.540;2023-06-01T14:09:48;6.10;;;5.50;;
1785;SDS011;890;48.158;11.540;2023-06-01T14:12:13;7.57;;;5.63;;
1785;SDS011;890;48.158;11.540;2023-06-01T14:14:39;6.57;;;5.87;;
1785;SDS011;890;48.158;11.540;2023-06-01T14:17:05;7.70;;;5.23;;
1785;SDS011;890;48.158;11.540;2023-06-01T14:19:31;6.17;;;5.40;;
1785;SDS011;890;48.158;11.540;2023-06-01T14:21:57;6.43;;;5.47;;
1785;SDS011;890;48.158;11.540;2023-06-01T14:24:22;6.70;;;6.00;;
1785;SDS011;890;48.158;11.540;2023-06-01T14:26:48;5.83;;;5.23;;
1785;SDS011;890;48.158;11.540;2023-06-01T14:29:13;5.70;;;5.13;;
1785;SDS011;890;48.158;11.540;2023-06-01T14:31:39;5.90;;;5.30;;
1785;SDS011;890;48.158;11.540;2023-06-01T14:34:05;6.90;;;4.83;;
1785;SDS011;890;48.158;11.540;2023-06-01T14:36:31;7.30;;;5.87;;
1785;SDS011;890;48.158;11.540;2023-06-01T14:38:56;6.10;;;4.93;;
1785;SDS011;890;48.158;11.540;2023-06-01T14:41:22;8.53;;;5.27;;
1785;SDS011;890;48.158;11.540;2023-06-01T14:43:47;6.10;;;5.50;;
1785;SDS011;890;48.158;11.540;2023-06-01T14:46:16;8.10;;;5.43;;
1785;SDS011;890;48.158;11.540;2023-06-01T14:48:42;5.63;;;5.13;;
1785;SDS011;890;48.158;11.540;2023-06-01T14:51:08;5.40;;;4.90;;
1785;SDS011;890;48.158;11.540;2023-06-01T14:53:34;6.00;;;4.83;;
1785;SDS011;890;48.158;11.540;2023-06-01T14:56:00;6.30;;;5.70;;
1785;SDS011;890;48.158;11.540;2023-06-01T14:58:26;5.37;;;4.87;;
1785;SDS011;890;48.158;11.540;2023-06-01T15:00:51;5.67;;;5.17;;
1785;SDS011;890;48.158;11.540;2023-06-01T15:03:17;5.17;;;4.67;;
1785;SDS011;890;48.158;11.540;2023-06-01T15:05:43;5.33;;;4.83;;
1785;SDS011;890;48.158;11.540;2023-06-01T15:08:09;5.77;;;5.17;;
1785;SDS011;890;48.158;11.540;2023-06-01T15:10:34;5.37;;;4.87;;
1785;SDS011;890;48.158;11.540;2023-06-01T15:13:00;5.87;;;5.27;;
1785;SDS011;890;48.158;11.540;2023-06-01T15:15:25;5.50;;;4.80;;
1785;SDS011;890;48.158;11.540;2023-06-01T15:17:52;7.10;;;5.63;;
1785;SDS011;890;48.158;11.540;2023-06-01T15:20:17;5.30;;;4.50;;
1785;SDS011;890;48.158;11.540;2023-06-01T15:22:43;5.47;;;4.73;;
1785;SDS011;890;48.158;11.540;2023-06-01T15:25:09;5.20;;;4.20;;
1785;SDS011;890;48.158;11.540;2023-06-01T15:27:34;5.20;;;4.50;;
1785;SDS011;890;48.158;11.540;2023-06-01T15:30:01;5.80;;;5.13;;
1785;SDS011;890;48.158;11.540;2023-06-01T15:32:27;8.17;;;4.87;;
1785;SDS011;890;48.158;11.540;2023-06-01T15:34:52;9.23;;;5.80;;
1785;SDS011;890;48.158;11.540;2023-06-01T15:37:18;6.23;;;4.80;;
1785;SDS011;890;48.158;11.540;2023-06-01T15:39:45;6.30;;;4.97;;
1785;SDS011;890;48.158;11.540;2023-06-01T15:42:10;5.43;;;4.93;;
1785;SDS011;890;48.158;11.540;2023-06-01T15:44:40;7.10;;;5.10;;
1785;SDS011;890;48.158;11.540;2023-06-01T15:47:07;8.40;;;5.37;;
1785;SDS011;890;48.158;11.540;2023-06-01T15:49:33;7.67;;;5.30;;
1785;SDS011;890;48.158;11.540;2023-06-01T15:51:58;8.90;;;4.80;;
1785;SDS011;890;48.158;11.540;2023-06-01T15:54:25;10.73;;;5.93;;